Sturgills, North Carolina
Current Conditions -  °F | °C
As of 1:15 AM on Sunday 26 Oct 2014 (Local Time) from KGEV Reporting Station
Clear Clear  
Wind Chill: 56°   Ceiling: Unl
Heat Index: 56°   Visibility: 10mi
Dew Point: 45°   Wind: 18mph
Humidity: 67%   Direction: 280°W
Pressure: 29.97"   Gusts: 24mph
Location:  36.524°N, 81.538°W
Report Text: KGEV 260515Z AUTO 28016G21KT 10SM CLR 13/07 A2997 RMK AO2 T01310072
Loading
Personal Weather Stations






























Interactive Weather Map
Tropical Storm Tracking
New forecast layout! Learn more

10-Day Weather Forecast

Advertisements
Track Severe Weather on mobile